sensor_id;sensor_type;location;lat;lon;timestamp;P1;durP1;ratioP1;P2;durP2;ratioP2
11671;SDS011;5892;43.412;24.612;2024-02-28T00:01:51;13.68;;;6.32;;
11671;SDS011;5892;43.412;24.612;2024-02-28T00:04:17;17.38;;;5.72;;
11671;SDS011;5892;43.412;24.612;2024-02-28T00:06:44;13.30;;;6.18;;
11671;SDS011;5892;43.412;24.612;2024-02-28T00:09:11;13.57;;;6.97;;
11671;SDS011;5892;43.412;24.612;2024-02-28T00:11:45;11.73;;;5.80;;
11671;SDS011;5892;43.412;24.612;2024-02-28T00:14:12;12.65;;;6.15;;
11671;SDS011;5892;43.412;24.612;2024-02-28T00:16:42;14.85;;;7.15;;
11671;SDS011;5892;43.412;24.612;2024-02-28T00:19:10;19.50;;;7.20;;
11671;SDS011;5892;43.412;24.612;2024-02-28T00:21:37;13.27;;;6.85;;
11671;SDS011;5892;43.412;24.612;2024-02-28T00:24:06;16.02;;;7.47;;
11671;SDS011;5892;43.412;24.612;2024-02-28T00:26:31;14.77;;;6.88;;
11671;SDS011;5892;43.412;24.612;2024-02-28T00:28:58;15.70;;;7.63;;
11671;SDS011;5892;43.412;24.612;2024-02-28T00:31:24;15.10;;;7.55;;
11671;SDS011;5892;43.412;24.612;2024-02-28T00:33:50;16.02;;;8.35;;
11671;SDS011;5892;43.412;24.612;2024-02-28T00:36:17;17.15;;;7.68;;
11671;SDS011;5892;43.412;24.612;2024-02-28T00:38:43;15.50;;;6.90;;
11671;SDS011;5892;43.412;24.612;2024-02-28T00:41:09;18.15;;;7.75;;
11671;SDS011;5892;43.412;24.612;2024-02-28T00:43:35;20.00;;;8.38;;
11671;SDS011;5892;43.412;24.612;2024-02-28T00:46:01;20.65;;;8.15;;
11671;SDS011;5892;43.412;24.612;2024-02-28T00:48:27;21.88;;;9.25;;
11671;SDS011;5892;43.412;24.612;2024-02-28T00:50:53;20.08;;;9.02;;
11671;SDS011;5892;43.412;24.612;2024-02-28T00:53:19;23.70;;;9.05;;
11671;SDS011;5892;43.412;24.612;2024-02-28T00:55:48;13.43;;;7.25;;
11671;SDS011;5892;43.412;24.612;2024-02-28T01:00:43;15.95;;;5.45;;
11671;SDS011;5892;43.412;24.612;2024-02-28T01:03:08;11.68;;;5.45;;
11671;SDS011;5892;43.412;24.612;2024-02-28T01:05:36;17.17;;;5.35;;
11671;SDS011;5892;43.412;24.612;2024-02-28T01:08:02;14.02;;;5.53;;
11671;SDS011;5892;43.412;24.612;2024-02-28T01:10:28;11.63;;;5.75;;
11671;SDS011;5892;43.412;24.612;2024-02-28T01:12:53;12.05;;;5.38;;
11671;SDS011;5892;43.412;24.612;2024-02-28T01:15:19;14.10;;;4.95;;
11671;SDS011;5892;43.412;24.612;2024-02-28T01:17:44;13.57;;;5.28;;
11671;SDS011;5892;43.412;24.612;2024-02-28T01:20:12;16.65;;;6.05;;
11671;SDS011;5892;43.412;24.612;2024-02-28T01:22:38;12.93;;;5.95;;
11671;SDS011;5892;43.412;24.612;2024-02-28T01:25:03;10.35;;;5.20;;
11671;SDS011;5892;43.412;24.612;2024-02-28T01:27:29;15.13;;;5.43;;
11671;SDS011;5892;43.412;24.612;2024-02-28T01:29:54;14.05;;;5.88;;
11671;SDS011;5892;43.412;24.612;2024-02-28T01:32:21;12.77;;;5.00;;
11671;SDS011;5892;43.412;24.612;2024-02-28T01:34:46;12.18;;;5.07;;
11671;SDS011;5892;43.412;24.612;2024-02-28T01:37:12;11.07;;;5.60;;
11671;SDS011;5892;43.412;24.612;2024-02-28T01:39:38;14.07;;;5.25;;
11671;SDS011;5892;43.412;24.612;2024-02-28T01:42:06;10.48;;;4.97;;
11671;SDS011;5892;43.412;24.612;2024-02-28T01:44:33;15.45;;;5.63;;
11671;SDS011;5892;43.412;24.612;2024-02-28T01:47:05;12.77;;;5.50;;
11671;SDS011;5892;43.412;24.612;2024-02-28T01:49:35;14.95;;;7.22;;
11671;SDS011;5892;43.412;24.612;2024-02-28T01:52:01;13.00;;;5.32;;
11671;SDS011;5892;43.412;24.612;2024-02-28T01:54:28;14.55;;;4.78;;
11671;SDS011;5892;43.412;24.612;2024-02-28T01:56:55;14.10;;;6.00;;
11671;SDS011;5892;43.412;24.612;2024-02-28T01:59:21;13.23;;;6.15;;
11671;SDS011;5892;43.412;24.612;2024-02-28T02:01:50;14.23;;;5.80;;
11671;SDS011;5892;43.412;24.612;2024-02-28T02:04:15;16.08;;;7.30;;
11671;SDS011;5892;43.412;24.612;2024-02-28T02:06:42;16.67;;;8.05;;
11671;SDS011;5892;43.412;24.612;2024-02-28T02:09:09;12.40;;;6.70;;
11671;SDS011;5892;43.412;24.612;2024-02-28T02:11:35;15.07;;;6.63;;
11671;SDS011;5892;43.412;24.612;2024-02-28T02:14:00;15.05;;;7.05;;
11671;SDS011;5892;43.412;24.612;2024-02-28T02:16:26;14.70;;;6.93;;
11671;SDS011;5892;43.412;24.612;2024-02-28T02:18:52;14.38;;;6.47;;
11671;SDS011;5892;43.412;24.612;2024-02-28T02:21:18;15.35;;;6.63;;
11671;SDS011;5892;43.412;24.612;2024-02-28T02:23:47;10.82;;;5.40;;
11671;SDS011;5892;43.412;24.612;2024-02-28T02:26:13;17.05;;;6.55;;
11671;SDS011;5892;43.412;24.612;2024-02-28T02:28:39;15.13;;;5.35;;
11671;SDS011;5892;43.412;24.612;2024-02-28T02:31:05;14.50;;;6.47;;
11671;SDS011;5892;43.412;24.612;2024-02-28T02:33:31;15.60;;;7.38;;
11671;SDS011;5892;43.412;24.612;2024-02-28T02:35:57;10.20;;;5.07;;
11671;SDS011;5892;43.412;24.612;2024-02-28T02:38:24;18.00;;;6.38;;
11671;SDS011;5892;43.412;24.612;2024-02-28T02:40:50;14.93;;;5.82;;
11671;SDS011;5892;43.412;24.612;2024-02-28T02:43:16;12.45;;;5.68;;
11671;SDS011;5892;43.412;24.612;2024-02-28T02:45:41;14.32;;;5.35;;
11671;SDS011;5892;43.412;24.612;2024-02-28T02:48:10;16.05;;;5.20;;
11671;SDS011;5892;43.412;24.612;2024-02-28T02:50:36;13.10;;;5.57;;
11671;SDS011;5892;43.412;24.612;2024-02-28T02:53:02;16.23;;;4.75;;
11671;SDS011;5892;43.412;24.612;2024-02-28T02:55:28;12.90;;;5.93;;
11671;SDS011;5892;43.412;24.612;2024-02-28T02:57:54;12.60;;;6.28;;
11671;SDS011;5892;43.412;24.612;2024-02-28T03:00:20;9.43;;;5.53;;
11671;SDS011;5892;43.412;24.612;2024-02-28T03:02:47;16.10;;;4.97;;
11671;SDS011;5892;43.412;24.612;2024-02-28T03:05:13;14.27;;;4.88;;
11671;SDS011;5892;43.412;24.612;2024-02-28T03:07:38;12.25;;;5.65;;
11671;SDS011;5892;43.412;24.612;2024-02-28T03:10:05;15.13;;;5.93;;
11671;SDS011;5892;43.412;24.612;2024-02-28T03:12:31;11.82;;;5.20;;
11671;SDS011;5892;43.412;24.612;2024-02-28T03:14:56;15.88;;;6.32;;
11671;SDS011;5892;43.412;24.612;2024-02-28T03:17:22;17.13;;;6.82;;
11671;SDS011;5892;43.412;24.612;2024-02-28T03:19:48;17.42;;;5.95;;
11671;SDS011;5892;43.412;24.612;2024-02-28T03:22:13;19.20;;;7.65;;
11671;SDS011;5892;43.412;24.612;2024-02-28T03:24:39;14.00;;;7.93;;
11671;SDS011;5892;43.412;24.612;2024-02-28T03:27:04;16.73;;;7.30;;
11671;SDS011;5892;43.412;24.612;2024-02-28T03:29:31;18.52;;;7.55;;
11671;SDS011;5892;43.412;24.612;2024-02-28T03:31:58;18.98;;;8.32;;
11671;SDS011;5892;43.412;24.612;2024-02-28T03:34:24;24.83;;;10.30;;
11671;SDS011;5892;43.412;24.612;2024-02-28T03:36:51;22.13;;;9.05;;
11671;SDS011;5892;43.412;24.612;2024-02-28T03:39:17;19.20;;;9.35;;
11671;SDS011;5892;43.412;24.612;2024-02-28T03:41:42;18.65;;;9.20;;
11671;SDS011;5892;43.412;24.612;2024-02-28T03:44:08;21.15;;;9.27;;
11671;SDS011;5892;43.412;24.612;2024-02-28T03:46:33;24.55;;;11.10;;
11671;SDS011;5892;43.412;24.612;2024-02-28T03:49:00;22.90;;;10.20;;
11671;SDS011;5892;43.412;24.612;2024-02-28T03:51:25;25.05;;;12.52;;
11671;SDS011;5892;43.412;24.612;2024-02-28T03:53:52;26.48;;;13.45;;
11671;SDS011;5892;43.412;24.612;2024-02-28T03:56:24;29.75;;;12.60;;
11671;SDS011;5892;43.412;24.612;2024-02-28T03:58:50;35.33;;;14.93;;
11671;SDS011;5892;43.412;24.612;2024-02-28T04:01:15;27.63;;;13.77;;
11671;SDS011;5892;43.412;24.612;2024-02-28T04:03:41;29.13;;;14.25;;
11671;SDS011;5892;43.412;24.612;2024-02-28T04:06:07;28.02;;;12.70;;
11671;SDS011;5892;43.412;24.612;2024-02-28T04:08:32;23.70;;;12.95;;
11671;SDS011;5892;43.412;24.612;2024-02-28T04:10:57;38.67;;;13.35;;
11671;SDS011;5892;43.412;24.612;2024-02-28T04:13:23;25.42;;;12.85;;
11671;SDS011;5892;43.412;24.612;2024-02-28T04:15:48;24.08;;;12.93;;
11671;SDS011;5892;43.412;24.612;2024-02-28T04:18:14;27.60;;;12.30;;
11671;SDS011;5892;43.412;24.612;2024-02-28T04:20:39;31.48;;;11.80;;
11671;SDS011;5892;43.412;24.612;2024-02-28T04:23:05;24.77;;;13.63;;
11671;SDS011;5892;43.412;24.612;2024-02-28T04:25:30;28.35;;;12.35;;
11671;SDS011;5892;43.412;24.612;2024-02-28T04:27:56;25.48;;;11.80;;
11671;SDS011;5892;43.412;24.612;2024-02-28T04:30:22;29.58;;;11.52;;
11671;SDS011;5892;43.412;24.612;2024-02-28T04:32:48;29.85;;;12.98;;
11671;SDS011;5892;43.412;24.612;2024-02-28T04:35:13;27.65;;;12.70;;
11671;SDS011;5892;43.412;24.612;2024-02-28T04:37:43;33.63;;;14.60;;
11671;SDS011;5892;43.412;24.612;2024-02-28T04:40:09;36.85;;;14.45;;
11671;SDS011;5892;43.412;24.612;2024-02-28T04:42:35;30.17;;;13.30;;
11671;SDS011;5892;43.412;24.612;2024-02-28T04:45:00;33.50;;;12.85;;
11671;SDS011;5892;43.412;24.612;2024-02-28T04:47:26;37.53;;;13.70;;
11671;SDS011;5892;43.412;24.612;2024-02-28T04:49:51;31.67;;;14.07;;
11671;SDS011;5892;43.412;24.612;2024-02-28T04:52:18;33.25;;;13.85;;
11671;SDS011;5892;43.412;24.612;2024-02-28T04:54:43;34.38;;;12.55;;
11671;SDS011;5892;43.412;24.612;2024-02-28T04:57:10;31.10;;;13.82;;
11671;SDS011;5892;43.412;24.612;2024-02-28T04:59:35;32.30;;;14.50;;
11671;SDS011;5892;43.412;24.612;2024-02-28T05:02:01;39.85;;;15.88;;
11671;SDS011;5892;43.412;24.612;2024-02-28T05:04:26;35.97;;;15.48;;
11671;SDS011;5892;43.412;24.612;2024-02-28T05:06:52;39.70;;;15.15;;
11671;SDS011;5892;43.412;24.612;2024-02-28T05:09:17;45.60;;;16.80;;
11671;SDS011;5892;43.412;24.612;2024-02-28T05:11:43;44.03;;;15.77;;
11671;SDS011;5892;43.412;24.612;2024-02-28T05:14:09;37.67;;;15.73;;
11671;SDS011;5892;43.412;24.612;2024-02-28T05:16:36;35.75;;;14.63;;
11671;SDS011;5892;43.412;24.612;2024-02-28T05:19:02;28.20;;;12.55;;
11671;SDS011;5892;43.412;24.612;2024-02-28T05:21:29;40.20;;;14.88;;
11671;SDS011;5892;43.412;24.612;2024-02-28T05:23:54;36.63;;;14.15;;
11671;SDS011;5892;43.412;24.612;2024-02-28T05:26:20;38.17;;;14.75;;
11671;SDS011;5892;43.412;24.612;2024-02-28T05:28:45;39.00;;;15.25;;
11671;SDS011;5892;43.412;24.612;2024-02-28T05:31:21;43.08;;;16.67;;
11671;SDS011;5892;43.412;24.612;2024-02-28T05:33:47;46.67;;;19.25;;
11671;SDS011;5892;43.412;24.612;2024-02-28T05:36:14;46.42;;;18.60;;
11671;SDS011;5892;43.412;24.612;2024-02-28T05:38:39;49.97;;;17.15;;
11671;SDS011;5892;43.412;24.612;2024-02-28T05:41:04;36.45;;;15.85;;
11671;SDS011;5892;43.412;24.612;2024-02-28T05:43:30;40.88;;;16.45;;
11671;SDS011;5892;43.412;24.612;2024-02-28T05:45:55;44.78;;;16.73;;
11671;SDS011;5892;43.412;24.612;2024-02-28T05:48:22;51.58;;;18.85;;
11671;SDS011;5892;43.412;24.612;2024-02-28T05:50:47;43.28;;;17.17;;
11671;SDS011;5892;43.412;24.612;2024-02-28T05:53:13;46.08;;;18.02;;
11671;SDS011;5892;43.412;24.612;2024-02-28T05:55:39;43.65;;;17.08;;
11671;SDS011;5892;43.412;24.612;2024-02-28T05:58:04;44.47;;;16.70;;
11671;SDS011;5892;43.412;24.612;2024-02-28T06:00:30;36.90;;;15.07;;
11671;SDS011;5892;43.412;24.612;2024-02-28T06:02:55;38.45;;;17.40;;
11671;SDS011;5892;43.412;24.612;2024-02-28T06:05:22;42.95;;;16.70;;
11671;SDS011;5892;43.412;24.612;2024-02-28T06:07:48;47.92;;;16.73;;
11671;SDS011;5892;43.412;24.612;2024-02-28T06:10:13;44.33;;;16.70;;
11671;SDS011;5892;43.412;24.612;2024-02-28T06:12:39;40.72;;;16.00;;
11671;SDS011;5892;43.412;24.612;2024-02-28T06:15:05;43.00;;;17.58;;
11671;SDS011;5892;43.412;24.612;2024-02-28T06:17:31;39.03;;;17.15;;
11671;SDS011;5892;43.412;24.612;2024-02-28T06:19:56;45.35;;;17.00;;
11671;SDS011;5892;43.412;24.612;2024-02-28T06:22:22;40.45;;;15.18;;
11671;SDS011;5892;43.412;24.612;2024-02-28T06:24:47;36.10;;;16.90;;
11671;SDS011;5892;43.412;24.612;2024-02-28T06:27:13;36.42;;;18.08;;
11671;SDS011;5892;43.412;24.612;2024-02-28T06:29:39;37.95;;;15.68;;
11671;SDS011;5892;43.412;24.612;2024-02-28T06:32:06;38.60;;;16.90;;
11671;SDS011;5892;43.412;24.612;2024-02-28T06:34:31;33.05;;;14.98;;
11671;SDS011;5892;43.412;24.612;2024-02-28T06:36:57;34.20;;;15.73;;
11671;SDS011;5892;43.412;24.612;2024-02-28T06:39:23;36.05;;;14.73;;
11671;SDS011;5892;43.412;24.612;2024-02-28T06:41:48;27.38;;;13.48;;
11671;SDS011;5892;43.412;24.612;2024-02-28T06:44:19;29.83;;;13.38;;
11671;SDS011;5892;43.412;24.612;2024-02-28T06:46:46;33.35;;;14.60;;
11671;SDS011;5892;43.412;24.612;2024-02-28T06:49:12;29.75;;;14.15;;
11671;SDS011;5892;43.412;24.612;2024-02-28T06:51:37;33.53;;;15.23;;
11671;SDS011;5892;43.412;24.612;2024-02-28T06:54:03;34.75;;;15.15;;
11671;SDS011;5892;43.412;24.612;2024-02-28T06:56:30;27.98;;;14.55;;
11671;SDS011;5892;43.412;24.612;2024-02-28T06:58:56;31.70;;;15.07;;
11671;SDS011;5892;43.412;24.612;2024-02-28T07:01:21;31.27;;;15.02;;
11671;SDS011;5892;43.412;24.612;2024-02-28T07:03:47;26.95;;;12.85;;
11671;SDS011;5892;43.412;24.612;2024-02-28T07:06:12;25.77;;;11.55;;
11671;SDS011;5892;43.412;24.612;2024-02-28T07:08:38;25.52;;;13.02;;
11671;SDS011;5892;43.412;24.612;2024-02-28T07:11:13;29.55;;;12.85;;
11671;SDS011;5892;43.412;24.612;2024-02-28T07:13:39;24.75;;;12.68;;
11671;SDS011;5892;43.412;24.612;2024-02-28T07:16:08;26.02;;;12.98;;
11671;SDS011;5892;43.412;24.612;2024-02-28T07:18:33;23.92;;;11.35;;
11671;SDS011;5892;43.412;24.612;2024-02-28T07:21:00;22.48;;;12.15;;
11671;SDS011;5892;43.412;24.612;2024-02-28T07:23:27;26.10;;;13.15;;
11671;SDS011;5892;43.412;24.612;2024-02-28T07:25:53;28.00;;;12.35;;
11671;SDS011;5892;43.412;24.612;2024-02-28T07:28:18;24.95;;;13.00;;
11671;SDS011;5892;43.412;24.612;2024-02-28T07:30:44;27.40;;;10.73;;
11671;SDS011;5892;43.412;24.612;2024-02-28T07:33:10;24.33;;;11.50;;
11671;SDS011;5892;43.412;24.612;2024-02-28T07:35:46;23.77;;;11.70;;
11671;SDS011;5892;43.412;24.612;2024-02-28T07:38:11;27.67;;;12.45;;
11671;SDS011;5892;43.412;24.612;2024-02-28T07:40:37;21.65;;;11.32;;
11671;SDS011;5892;43.412;24.612;2024-02-28T07:43:03;23.13;;;11.95;;
11671;SDS011;5892;43.412;24.612;2024-02-28T07:45:28;20.60;;;11.50;;
11671;SDS011;5892;43.412;24.612;2024-02-28T07:47:54;30.48;;;12.00;;
11671;SDS011;5892;43.412;24.612;2024-02-28T07:50:20;22.42;;;12.70;;
11671;SDS011;5892;43.412;24.612;2024-02-28T07:52:46;25.17;;;11.85;;
11671;SDS011;5892;43.412;24.612;2024-02-28T07:55:11;23.58;;;10.25;;
11671;SDS011;5892;43.412;24.612;2024-02-28T07:57:37;20.00;;;9.32;;
11671;SDS011;5892;43.412;24.612;2024-02-28T08:00:03;24.88;;;11.82;;
11671;SDS011;5892;43.412;24.612;2024-02-28T08:02:29;24.40;;;12.40;;
11671;SDS011;5892;43.412;24.612;2024-02-28T08:04:55;23.48;;;12.07;;
11671;SDS011;5892;43.412;24.612;2024-02-28T08:07:21;22.67;;;11.23;;
11671;SDS011;5892;43.412;24.612;2024-02-28T08:09:46;22.55;;;10.30;;
11671;SDS011;5892;43.412;24.612;2024-02-28T08:12:12;20.75;;;10.88;;
11671;SDS011;5892;43.412;24.612;2024-02-28T08:14:37;21.83;;;10.52;;
11671;SDS011;5892;43.412;24.612;2024-02-28T08:17:03;23.20;;;11.32;;
11671;SDS011;5892;43.412;24.612;2024-02-28T08:19:28;20.00;;;9.98;;
11671;SDS011;5892;43.412;24.612;2024-02-28T08:21:55;24.85;;;12.18;;
11671;SDS011;5892;43.412;24.612;2024-02-28T08:24:20;23.33;;;11.52;;
11671;SDS011;5892;43.412;24.612;2024-02-28T08:26:46;28.80;;;14.60;;
11671;SDS011;5892;43.412;24.612;2024-02-28T08:29:11;21.38;;;12.77;;
11671;SDS011;5892;43.412;24.612;2024-02-28T08:31:41;33.20;;;16.15;;
11671;SDS011;5892;43.412;24.612;2024-02-28T08:34:08;23.50;;;12.80;;
11671;SDS011;5892;43.412;24.612;2024-02-28T08:36:34;24.00;;;12.07;;
11671;SDS011;5892;43.412;24.612;2024-02-28T08:39:00;19.67;;;9.73;;
11671;SDS011;5892;43.412;24.612;2024-02-28T08:41:26;20.30;;;11.60;;
11671;SDS011;5892;43.412;24.612;2024-02-28T08:43:51;23.55;;;12.55;;
11671;SDS011;5892;43.412;24.612;2024-02-28T08:46:18;23.55;;;10.68;;
11671;SDS011;5892;43.412;24.612;2024-02-28T08:48:44;21.08;;;11.82;;
11671;SDS011;5892;43.412;24.612;2024-02-28T08:51:09;21.33;;;12.05;;
11671;SDS011;5892;43.412;24.612;2024-02-28T08:53:34;24.58;;;11.77;;
11671;SDS011;5892;43.412;24.612;2024-02-28T08:56:00;23.67;;;11.50;;
11671;SDS011;5892;43.412;24.612;2024-02-28T08:58:25;24.98;;;12.82;;
11671;SDS011;5892;43.412;24.612;2024-02-28T09:00:51;22.10;;;12.32;;
11671;SDS011;5892;43.412;24.612;2024-02-28T09:03:17;22.35;;;13.18;;
11671;SDS011;5892;43.412;24.612;2024-02-28T09:05:44;21.63;;;11.82;;
11671;SDS011;5892;43.412;24.612;2024-02-28T09:08:09;25.73;;;12.85;;
11671;SDS011;5892;43.412;24.612;2024-02-28T09:10:36;26.42;;;13.95;;
11671;SDS011;5892;43.412;24.612;2024-02-28T09:13:02;22.70;;;12.07;;
11671;SDS011;5892;43.412;24.612;2024-02-28T09:15:27;26.00;;;12.20;;
11671;SDS011;5892;43.412;24.612;2024-02-28T09:17:53;29.05;;;13.30;;
11671;SDS011;5892;43.412;24.612;2024-02-28T09:20:18;24.23;;;14.00;;
11671;SDS011;5892;43.412;24.612;2024-02-28T09:22:44;24.20;;;13.80;;
11671;SDS011;5892;43.412;24.612;2024-02-28T09:25:09;24.48;;;12.18;;
11671;SDS011;5892;43.412;24.612;2024-02-28T09:27:36;28.05;;;13.70;;
11671;SDS011;5892;43.412;24.612;2024-02-28T09:30:02;28.80;;;12.70;;
11671;SDS011;5892;43.412;24.612;2024-02-28T09:32:28;23.65;;;12.05;;
11671;SDS011;5892;43.412;24.612;2024-02-28T09:34:54;25.40;;;14.32;;
11671;SDS011;5892;43.412;24.612;2024-02-28T09:37:19;23.92;;;12.65;;
11671;SDS011;5892;43.412;24.612;2024-02-28T09:39:49;29.98;;;13.98;;
11671;SDS011;5892;43.412;24.612;2024-02-28T09:42:15;26.88;;;13.52;;
11671;SDS011;5892;43.412;24.612;2024-02-28T09:44:40;27.23;;;14.65;;
11671;SDS011;5892;43.412;24.612;2024-02-28T09:47:07;32.10;;;14.10;;
11671;SDS011;5892;43.412;24.612;2024-02-28T09:49:33;24.65;;;13.23;;
11671;SDS011;5892;43.412;24.612;2024-02-28T09:52:02;16.80;;;10.38;;
11671;SDS011;5892;43.412;24.612;2024-02-28T09:54:28;22.40;;;12.07;;
11671;SDS011;5892;43.412;24.612;2024-02-28T09:56:57;22.33;;;12.52;;
11671;SDS011;5892;43.412;24.612;2024-02-28T09:59:23;21.48;;;11.63;;
11671;SDS011;5892;43.412;24.612;2024-02-28T10:01:53;29.13;;;12.77;;
11671;SDS011;5892;43.412;24.612;2024-02-28T10:04:23;21.27;;;12.38;;
11671;SDS011;5892;43.412;24.612;2024-02-28T10:06:50;20.08;;;11.65;;
11671;SDS011;5892;43.412;24.612;2024-02-28T10:09:16;21.45;;;11.50;;
11671;SDS011;5892;43.412;24.612;2024-02-28T10:11:41;25.75;;;12.90;;
11671;SDS011;5892;43.412;24.612;2024-02-28T10:14:09;23.45;;;13.15;;
11671;SDS011;5892;43.412;24.612;2024-02-28T10:16:35;26.10;;;14.10;;
11671;SDS011;5892;43.412;24.612;2024-02-28T10:19:00;23.67;;;13.23;;
11671;SDS011;5892;43.412;24.612;2024-02-28T10:21:26;27.77;;;13.75;;
11671;SDS011;5892;43.412;24.612;2024-02-28T10:23:51;24.77;;;14.60;;
11671;SDS011;5892;43.412;24.612;2024-02-28T10:26:17;26.30;;;13.65;;
11671;SDS011;5892;43.412;24.612;2024-02-28T10:28:42;24.17;;;13.82;;
11671;SDS011;5892;43.412;24.612;2024-02-28T10:31:09;23.45;;;13.05;;
11671;SDS011;5892;43.412;24.612;2024-02-28T10:33:35;23.25;;;11.93;;
11671;SDS011;5892;43.412;24.612;2024-02-28T10:36:04;25.67;;;13.35;;
11671;SDS011;5892;43.412;24.612;2024-02-28T10:38:30;26.05;;;13.77;;
11671;SDS011;5892;43.412;24.612;2024-02-28T10:43:30;25.58;;;13.95;;
11671;SDS011;5892;43.412;24.612;2024-02-28T10:45:58;27.60;;;13.13;;
11671;SDS011;5892;43.412;24.612;2024-02-28T10:48:25;23.10;;;12.32;;
11671;SDS011;5892;43.412;24.612;2024-02-28T10:50:51;22.10;;;12.95;;
11671;SDS011;5892;43.412;24.612;2024-02-28T10:53:18;29.38;;;14.10;;
11671;SDS011;5892;43.412;24.612;2024-02-28T10:55:57;23.45;;;12.15;;
11671;SDS011;5892;43.412;24.612;2024-02-28T10:58:30;24.73;;;13.25;;
11671;SDS011;5892;43.412;24.612;2024-02-28T11:01:01;25.17;;;13.43;;
11671;SDS011;5892;43.412;24.612;2024-02-28T11:03:27;21.73;;;12.23;;
11671;SDS011;5892;43.412;24.612;2024-02-28T11:05:53;24.90;;;12.82;;
11671;SDS011;5892;43.412;24.612;2024-02-28T11:08:20;25.40;;;13.27;;
11671;SDS011;5892;43.412;24.612;2024-02-28T11:10:47;20.42;;;12.43;;
11671;SDS011;5892;43.412;24.612;2024-02-28T11:13:26;24.30;;;12.23;;
11671;SDS011;5892;43.412;24.612;2024-02-28T11:15:53;21.60;;;12.48;;
11671;SDS011;5892;43.412;24.612;2024-02-28T11:18:20;25.08;;;12.32;;
11671;SDS011;5892;43.412;24.612;2024-02-28T11:20:46;22.38;;;12.93;;
11671;SDS011;5892;43.412;24.612;2024-02-28T11:23:13;24.42;;;11.82;;
11671;SDS011;5892;43.412;24.612;2024-02-28T11:25:39;37.75;;;13.77;;
11671;SDS011;5892;43.412;24.612;2024-02-28T11:28:08;20.58;;;12.50;;
11671;SDS011;5892;43.412;24.612;2024-02-28T11:30:34;25.55;;;13.07;;
11671;SDS011;5892;43.412;24.612;2024-02-28T11:32:59;23.60;;;12.02;;
11671;SDS011;5892;43.412;24.612;2024-02-28T11:35:28;27.50;;;12.85;;
11671;SDS011;5892;43.412;24.612;2024-02-28T11:37:54;23.60;;;12.25;;
11671;SDS011;5892;43.412;24.612;2024-02-28T11:40:22;18.13;;;10.50;;
11671;SDS011;5892;43.412;24.612;2024-02-28T11:42:50;24.42;;;12.32;;
11671;SDS011;5892;43.412;24.612;2024-02-28T11:45:16;23.17;;;11.73;;
11671;SDS011;5892;43.412;24.612;2024-02-28T11:47:42;24.42;;;13.25;;
11671;SDS011;5892;43.412;24.612;2024-02-28T11:50:08;24.60;;;11.82;;
11671;SDS011;5892;43.412;24.612;2024-02-28T11:52:34;21.30;;;12.25;;
11671;SDS011;5892;43.412;24.612;2024-02-28T11:54:59;20.98;;;12.43;;
11671;SDS011;5892;43.412;24.612;2024-02-28T11:57:25;27.40;;;12.55;;
11671;SDS011;5892;43.412;24.612;2024-02-28T11:59:51;22.80;;;12.25;;
11671;SDS011;5892;43.412;24.612;2024-02-28T12:02:18;23.35;;;12.35;;
11671;SDS011;5892;43.412;24.612;2024-02-28T12:04:50;20.58;;;10.95;;
11671;SDS011;5892;43.412;24.612;2024-02-28T12:07:16;24.55;;;12.40;;
11671;SDS011;5892;43.412;24.612;2024-02-28T12:09:41;22.55;;;11.68;;
11671;SDS011;5892;43.412;24.612;2024-02-28T12:12:09;28.38;;;13.25;;
11671;SDS011;5892;43.412;24.612;2024-02-28T12:14:37;21.20;;;11.88;;
11671;SDS011;5892;43.412;24.612;2024-02-28T12:17:08;21.17;;;12.57;;
11671;SDS011;5892;43.412;24.612;2024-02-28T12:19:35;22.17;;;12.20;;
11671;SDS011;5892;43.412;24.612;2024-02-28T12:22:02;24.27;;;12.02;;
11671;SDS011;5892;43.412;24.612;2024-02-28T12:24:27;24.23;;;11.20;;
11671;SDS011;5892;43.412;24.612;2024-02-28T12:26:54;21.73;;;11.98;;
11671;SDS011;5892;43.412;24.612;2024-02-28T12:29:19;21.63;;;12.77;;
11671;SDS011;5892;43.412;24.612;2024-02-28T12:31:45;25.52;;;12.57;;
11671;SDS011;5892;43.412;24.612;2024-02-28T12:34:10;23.08;;;12.75;;
11671;SDS011;5892;43.412;24.612;2024-02-28T12:36:36;23.45;;;12.02;;
11671;SDS011;5892;43.412;24.612;2024-02-28T12:39:02;20.08;;;11.45;;
11671;SDS011;5892;43.412;24.612;2024-02-28T12:41:27;23.20;;;12.30;;
11671;SDS011;5892;43.412;24.612;2024-02-28T12:43:53;25.73;;;12.65;;
11671;SDS011;5892;43.412;24.612;2024-02-28T12:46:20;20.08;;;11.80;;
11671;SDS011;5892;43.412;24.612;2024-02-28T12:48:45;35.58;;;12.38;;
11671;SDS011;5892;43.412;24.612;2024-02-28T12:51:58;23.20;;;12.30;;
11671;SDS011;5892;43.412;24.612;2024-02-28T12:54:03;23.38;;;12.98;;
11671;SDS011;5892;43.412;24.612;2024-02-28T12:56:28;20.58;;;11.77;;
11671;SDS011;5892;43.412;24.612;2024-02-28T12:58:54;21.15;;;11.27;;
11671;SDS011;5892;43.412;24.612;2024-02-28T13:01:19;19.88;;;11.48;;
11671;SDS011;5892;43.412;24.612;2024-02-28T13:03:45;19.55;;;10.55;;
11671;SDS011;5892;43.412;24.612;2024-02-28T13:06:10;26.75;;;12.07;;
11671;SDS011;5892;43.412;24.612;2024-02-28T13:08:36;19.60;;;10.43;;
11671;SDS011;5892;43.412;24.612;2024-02-28T13:11:01;20.83;;;11.88;;
11671;SDS011;5892;43.412;24.612;2024-02-28T13:13:28;18.30;;;11.13;;
11671;SDS011;5892;43.412;24.612;2024-02-28T13:15:54;20.00;;;11.50;;
11671;SDS011;5892;43.412;24.612;2024-02-28T13:18:19;26.10;;;9.98;;
11671;SDS011;5892;43.412;24.612;2024-02-28T13:20:45;23.92;;;10.80;;
11671;SDS011;5892;43.412;24.612;2024-02-28T13:23:10;20.52;;;10.80;;
11671;SDS011;5892;43.412;24.612;2024-02-28T13:25:36;28.27;;;10.88;;
11671;SDS011;5892;43.412;24.612;2024-02-28T13:28:02;19.30;;;10.48;;
11671;SDS011;5892;43.412;24.612;2024-02-28T13:30:27;17.88;;;9.85;;
11671;SDS011;5892;43.412;24.612;2024-02-28T13:32:53;20.17;;;10.32;;
11671;SDS011;5892;43.412;24.612;2024-02-28T13:35:18;17.58;;;8.70;;
11671;SDS011;5892;43.412;24.612;2024-02-28T13:37:44;16.38;;;9.95;;
11671;SDS011;5892;43.412;24.612;2024-02-28T13:40:09;21.33;;;10.93;;
11671;SDS011;5892;43.412;24.612;2024-02-28T13:42:38;21.10;;;10.65;;
11671;SDS011;5892;43.412;24.612;2024-02-28T13:45:04;20.27;;;10.13;;
11671;SDS011;5892;43.412;24.612;2024-02-28T13:47:32;21.52;;;9.73;;
11671;SDS011;5892;43.412;24.612;2024-02-28T13:49:59;20.45;;;10.45;;
11671;SDS011;5892;43.412;24.612;2024-02-28T13:52:24;18.58;;;10.35;;
11671;SDS011;5892;43.412;24.612;2024-02-28T13:54:50;16.60;;;9.55;;
11671;SDS011;5892;43.412;24.612;2024-02-28T13:57:17;20.35;;;10.52;;
11671;SDS011;5892;43.412;24.612;2024-02-28T13:59:42;17.83;;;8.98;;
11671;SDS011;5892;43.412;24.612;2024-02-28T14:02:08;18.17;;;8.65;;
11671;SDS011;5892;43.412;24.612;2024-02-28T14:04:35;18.58;;;8.70;;
11671;SDS011;5892;43.412;24.612;2024-02-28T14:07:00;15.40;;;8.80;;
11671;SDS011;5892;43.412;24.612;2024-02-28T14:09:28;17.23;;;8.18;;
11671;SDS011;5892;43.412;24.612;2024-02-28T14:11:54;17.42;;;8.73;;
11671;SDS011;5892;43.412;24.612;2024-02-28T14:14:19;16.42;;;8.60;;
11671;SDS011;5892;43.412;24.612;2024-02-28T14:16:44;17.83;;;8.52;;
11671;SDS011;5892;43.412;24.612;2024-02-28T14:19:10;14.88;;;7.90;;
11671;SDS011;5892;43.412;24.612;2024-02-28T14:21:35;15.80;;;7.38;;
11671;SDS011;5892;43.412;24.612;2024-02-28T14:24:01;17.23;;;7.25;;
11671;SDS011;5892;43.412;24.612;2024-02-28T14:26:27;13.13;;;6.53;;